createdAt,value
2023-03-27T00:00:29.601Z,94643.00
2023-03-27T00:01:29.597Z,94643.00
2023-03-27T00:02:29.632Z,94643.00
2023-03-27T00:03:29.699Z,94641.00
2023-03-27T00:04:28.586Z,94639.00
2023-03-27T00:05:29.568Z,94635.00
2023-03-27T00:06:29.562Z,94631.00
2023-03-27T00:07:28.570Z,94635.00
2023-03-27T00:08:29.545Z,94633.00
2023-03-27T00:09:29.851Z,94637.00
2023-03-27T00:10:28.574Z,94637.00
2023-03-27T00:11:29.528Z,94637.00
2023-03-27T00:12:29.531Z,94639.00
2023-03-27T00:13:29.516Z,94635.00
2023-03-27T00:14:29.523Z,94629.00
2023-03-27T00:15:29.568Z,94629.00
2023-03-27T00:16:29.554Z,94627.00
2023-03-27T00:17:29.558Z,94623.00
2023-03-27T00:18:29.487Z,94621.00
2023-03-27T00:19:29.498Z,94621.00
2023-03-27T00:20:29.472Z,94617.00
2023-03-27T00:21:29.527Z,94615.00
2023-03-27T00:22:29.451Z,94617.00
2023-03-27T00:23:29.436Z,94617.00
2023-03-27T00:24:29.436Z,94619.00
2023-03-27T00:25:29.424Z,94619.00
2023-03-27T00:26:29.448Z,94621.00
2023-03-27T00:27:29.447Z,94619.00
2023-03-27T00:28:28.398Z,94617.00
2023-03-27T00:29:29.392Z,94619.00
2023-03-27T00:30:29.429Z,94615.00
2023-03-27T00:31:29.396Z,94613.00
2023-03-27T00:32:29.418Z,94613.00
2023-03-27T00:33:28.362Z,94615.00
2023-03-27T00:34:29.364Z,94615.00
2023-03-27T00:35:28.405Z,94619.00
2023-03-27T00:36:29.391Z,94619.00
2023-03-27T00:37:29.359Z,94619.00
2023-03-27T00:38:29.334Z,94621.00
2023-03-27T00:39:29.433Z,94617.00
2023-03-27T00:40:29.315Z,94617.00
2023-03-27T00:41:29.298Z,94617.00
2023-03-27T00:42:29.306Z,94623.00
2023-03-27T00:43:28.361Z,94621.00
2023-03-27T00:44:29.337Z,94619.00
2023-03-27T00:45:29.282Z,94615.00
2023-03-27T00:46:28.310Z,94617.00
2023-03-27T00:47:29.302Z,94617.00
2023-03-27T00:48:29.253Z,94617.00
2023-03-27T00:49:29.261Z,94613.00
2023-03-27T00:50:29.268Z,94613.00
2023-03-27T00:51:29.321Z,94617.00
2023-03-27T00:52:28.257Z,94615.00
2023-03-27T00:53:29.267Z,94615.00
2023-03-27T00:54:29.230Z,94613.00
2023-03-27T00:55:29.229Z,94613.00
2023-03-27T00:56:29.266Z,94619.00
2023-03-27T00:57:29.248Z,94621.00
2023-03-27T00:58:29.266Z,94625.00
2023-03-27T00:59:28.269Z,94627.00
2023-03-27T01:00:29.252Z,94629.00
2023-03-27T01:01:28.311Z,94631.00
2023-03-27T01:02:29.383Z,94629.00
2023-03-27T01:03:29.376Z,94627.00
2023-03-27T01:04:29.256Z,94627.00
2023-03-27T01:05:28.255Z,94627.00
2023-03-27T01:06:29.253Z,94627.00
2023-03-27T01:07:28.283Z,94631.00
2023-03-27T01:08:29.267Z,94633.00
2023-03-27T01:09:29.270Z,94633.00
2023-03-27T01:10:29.285Z,94637.00
2023-03-27T01:11:29.278Z,94639.00
2023-03-27T01:12:29.281Z,94639.00
2023-03-27T01:13:28.342Z,94641.00
2023-03-27T01:14:29.284Z,94639.00
2023-03-27T01:15:29.366Z,94641.00
2023-03-27T01:16:29.291Z,94641.00
2023-03-27T01:17:29.291Z,94641.00
2023-03-27T01:18:29.306Z,94641.00
2023-03-27T01:19:29.287Z,94643.00
2023-03-27T01:20:29.385Z,94647.00
2023-03-27T01:21:29.357Z,94645.00
2023-03-27T01:22:29.308Z,94647.00
2023-03-27T01:23:36.069Z,94647.00
2023-03-27T01:24:29.302Z,94651.00
2023-03-27T01:25:29.288Z,94651.00
2023-03-27T01:26:36.187Z,94655.00
2023-03-27T01:27:29.325Z,94655.00
2023-03-27T01:28:29.298Z,94655.00
2023-03-27T01:29:29.338Z,94655.00
2023-03-27T01:30:29.296Z,94656.00
2023-03-27T01:31:29.330Z,94655.00
2023-03-27T01:32:29.298Z,94653.00
2023-03-27T01:33:29.280Z,94649.00
2023-03-27T01:34:29.232Z,94645.00
2023-03-27T01:35:29.302Z,94645.00
2023-03-27T01:36:29.227Z,94647.00
2023-03-27T01:37:29.195Z,94647.00
2023-03-27T01:38:29.224Z,94647.00
2023-03-27T01:39:28.220Z,94651.00
2023-03-27T01:40:29.211Z,94647.00
2023-03-27T01:41:29.194Z,94651.00
2023-03-27T01:42:29.180Z,94651.00
2023-03-27T01:43:29.195Z,94651.00
2023-03-27T01:44:43.353Z,94647.00
2023-03-27T01:45:29.165Z,94647.00
2023-03-27T01:46:29.202Z,94641.00
2023-03-27T01:47:29.153Z,94643.00
2023-03-27T01:48:29.134Z,94645.00
2023-03-27T01:49:29.133Z,94645.00
2023-03-27T01:50:29.130Z,94647.00
2023-03-27T01:51:28.121Z,94647.00
2023-03-27T01:52:29.108Z,94643.00
2023-03-27T01:53:29.100Z,94643.00
2023-03-27T01:54:28.105Z,94643.00
2023-03-27T01:55:29.109Z,94643.00
2023-03-27T01:56:28.069Z,94643.00
2023-03-27T01:57:29.111Z,94645.00
2023-03-27T01:58:29.094Z,94645.00
2023-03-27T01:59:29.068Z,94645.00
2023-03-27T02:00:50.646Z,94645.00
2023-03-27T02:01:29.063Z,94645.00
2023-03-27T02:02:29.101Z,94645.00
2023-03-27T02:03:28.038Z,94645.00
2023-03-27T02:04:29.094Z,94647.00
2023-03-27T02:05:28.018Z,94645.00
2023-03-27T02:06:29.013Z,94643.00
2023-03-27T02:07:29.005Z,94641.00
2023-03-27T02:08:29.004Z,94643.00
2023-03-27T02:09:28.996Z,94641.00
2023-03-27T02:10:28.977Z,94639.00
2023-03-27T02:11:28.022Z,94637.00
2023-03-27T02:12:28.999Z,94635.00
2023-03-27T02:13:28.980Z,94633.00
2023-03-27T02:14:27.967Z,94631.00
2023-03-27T02:15:27.997Z,94629.00
2023-03-27T02:16:28.017Z,94627.00
2023-03-27T02:17:28.960Z,94625.00
2023-03-27T02:18:28.923Z,94623.00
2023-03-27T02:19:28.927Z,94619.00
2023-03-27T02:20:28.938Z,94617.00
2023-03-27T02:21:28.914Z,94613.00
2023-03-27T02:22:37.751Z,94613.00
2023-03-27T02:23:29.009Z,94609.00
2023-03-27T02:24:28.947Z,94611.00
2023-03-27T02:25:28.882Z,94611.00
2023-03-27T02:26:28.885Z,94609.00
2023-03-27T02:27:28.923Z,94608.00
2023-03-27T02:28:28.887Z,94606.00
2023-03-27T02:29:28.896Z,94606.00
2023-03-27T02:30:28.900Z,94609.00
2023-03-27T02:31:32.497Z,94608.00
2023-03-27T02:32:28.908Z,94609.00
2023-03-27T02:33:28.829Z,94608.00
2023-03-27T02:34:28.938Z,94609.00
2023-03-27T02:35:27.870Z,94609.00
2023-03-27T02:36:28.868Z,94609.00
2023-03-27T02:37:32.571Z,94613.00
2023-03-27T02:38:28.825Z,94609.00
2023-03-27T02:39:27.825Z,94611.00
2023-03-27T02:40:28.900Z,94613.00
2023-03-27T02:41:28.910Z,94613.00
2023-03-27T02:42:28.943Z,94611.00
2023-03-27T02:43:29.007Z,94613.00
2023-03-27T02:44:28.971Z,94613.00
2023-03-27T02:45:29.038Z,94615.00
2023-03-27T02:46:29.085Z,94613.00
2023-03-27T02:47:29.052Z,94619.00
2023-03-27T02:48:27.905Z,94617.00
2023-03-27T02:49:27.966Z,94617.00
2023-03-27T02:50:28.941Z,94619.00
2023-03-27T02:51:28.927Z,94615.00
2023-03-27T02:52:27.911Z,94615.00
2023-03-27T02:53:28.940Z,94615.00
2023-03-27T02:54:28.943Z,94615.00
2023-03-27T02:55:28.972Z,94617.00
2023-03-27T02:56:27.934Z,94619.00
2023-03-27T02:57:28.933Z,94621.00
2023-03-27T02:58:28.928Z,94619.00
2023-03-27T02:59:29.077Z,94621.00
2023-03-27T03:00:27.962Z,94619.00
2023-03-27T03:01:28.999Z,94621.00
2023-03-27T03:02:28.976Z,94623.00
2023-03-27T03:03:28.127Z,94623.00
2023-03-27T03:04:27.986Z,94623.00
2023-03-27T03:05:27.910Z,94627.00
2023-03-27T03:06:28.957Z,94629.00
2023-03-27T03:07:28.901Z,94631.00
2023-03-27T03:08:28.946Z,94633.00
2023-03-27T03:09:28.905Z,94633.00
2023-03-27T03:10:28.909Z,94633.00
2023-03-27T03:11:28.899Z,94631.00
2023-03-27T03:12:29.007Z,94631.00
2023-03-27T03:13:28.925Z,94631.00
2023-03-27T03:14:28.919Z,94631.00
2023-03-27T03:15:28.980Z,94633.00
2023-03-27T03:16:27.923Z,94635.00
2023-03-27T03:17:28.952Z,94637.00
2023-03-27T03:18:29.019Z,94637.00
2023-03-27T03:19:28.974Z,94639.00
2023-03-27T03:20:29.051Z,94641.00
2023-03-27T03:21:28.984Z,94641.00
2023-03-27T03:22:28.928Z,94647.00
2023-03-27T03:23:28.988Z,94647.00
2023-03-27T03:24:29.063Z,94647.00
2023-03-27T03:25:28.976Z,94647.00
2023-03-27T03:26:29.012Z,94647.00
2023-03-27T03:27:29.050Z,94649.00
2023-03-27T03:28:28.971Z,94649.00
2023-03-27T03:29:29.000Z,94649.00
2023-03-27T03:30:29.062Z,94649.00
2023-03-27T03:31:29.110Z,94649.00
2023-03-27T03:32:29.051Z,94649.00
2023-03-27T03:33:28.042Z,94649.00
2023-03-27T03:34:29.015Z,94651.00
2023-03-27T03:35:29.136Z,94649.00
2023-03-27T03:36:27.994Z,94655.00
2023-03-27T03:37:29.003Z,94656.00
2023-03-27T03:38:28.969Z,94656.00
2023-03-27T03:39:29.029Z,94658.00
2023-03-27T03:40:27.972Z,94660.00
2023-03-27T03:41:28.952Z,94658.00
2023-03-27T03:42:28.957Z,94660.00
2023-03-27T03:43:28.960Z,94662.00
2023-03-27T03:44:28.972Z,94662.00
2023-03-27T03:45:28.996Z,94670.00
2023-03-27T03:46:29.042Z,94670.00
2023-03-27T03:47:28.026Z,94676.00
2023-03-27T03:48:28.957Z,94676.00
2023-03-27T03:49:29.022Z,94678.00
2023-03-27T03:50:28.970Z,94680.00
2023-03-27T03:51:28.982Z,94680.00
2023-03-27T03:52:28.968Z,94680.00
2023-03-27T03:53:28.968Z,94682.00
2023-03-27T03:54:28.006Z,94682.00
2023-03-27T03:55:28.969Z,94688.00
2023-03-27T03:56:28.957Z,94686.00
2023-03-27T03:57:28.944Z,94686.00
2023-03-27T03:58:34.183Z,94688.00
2023-03-27T03:59:28.952Z,94690.00
2023-03-27T04:00:28.943Z,94690.00
2023-03-27T04:01:29.027Z,94690.00
2023-03-27T04:02:29.087Z,94694.00
2023-03-27T04:03:27.978Z,94696.00
2023-03-27T04:04:28.894Z,94698.00
2023-03-27T04:05:28.929Z,94698.00
2023-03-27T04:06:28.892Z,94696.00
2023-03-27T04:07:28.875Z,94696.00
2023-03-27T04:08:28.919Z,94694.00
2023-03-27T04:09:28.851Z,94694.00
2023-03-27T04:10:28.860Z,94698.00
2023-03-27T04:11:28.834Z,94700.00
2023-03-27T04:12:28.841Z,94701.00
2023-03-27T04:13:28.832Z,94698.00
2023-03-27T04:14:28.813Z,94701.00
2023-03-27T04:15:28.817Z,94700.00
2023-03-27T04:16:28.852Z,94701.00
2023-03-27T04:17:28.850Z,94703.00
2023-03-27T04:18:28.862Z,94703.00
2023-03-27T04:19:28.808Z,94703.00
2023-03-27T04:20:28.838Z,94707.00
2023-03-27T04:21:28.777Z,94703.00
2023-03-27T04:22:28.786Z,94701.00
2023-03-27T04:23:28.760Z,94705.00
2023-03-27T04:24:28.734Z,94703.00
2023-03-27T04:25:28.733Z,94705.00
2023-03-27T04:26:28.776Z,94707.00
2023-03-27T04:27:28.716Z,94707.00
2023-03-27T04:28:28.811Z,94709.00
2023-03-27T04:29:28.731Z,94711.00
2023-03-27T04:30:28.703Z,94711.00
2023-03-27T04:31:28.768Z,94709.00
2023-03-27T04:32:28.718Z,94711.00
2023-03-27T04:33:30.681Z,94711.00
2023-03-27T04:34:28.699Z,94709.00
2023-03-27T04:35:28.824Z,94707.00
2023-03-27T04:36:30.693Z,94709.00
2023-03-27T04:37:28.673Z,94713.00
2023-03-27T04:38:28.645Z,94713.00
2023-03-27T04:39:28.691Z,94719.00
2023-03-27T04:40:28.639Z,94721.00
2023-03-27T04:41:28.647Z,94721.00
2023-03-27T04:42:28.617Z,94723.00
2023-03-27T04:43:27.625Z,94725.00
2023-03-27T04:44:28.635Z,94727.00
2023-03-27T04:45:29.190Z,94729.00
2023-03-27T04:46:28.662Z,94733.00
2023-03-27T04:47:28.652Z,94733.00
2023-03-27T04:48:28.586Z,94733.00
2023-03-27T04:49:28.586Z,94735.00
2023-03-27T04:50:28.585Z,94739.00
2023-03-27T04:51:28.593Z,94739.00
2023-03-27T04:52:28.624Z,94745.00
2023-03-27T04:53:27.552Z,94745.00
2023-03-27T04:54:28.541Z,94747.00
2023-03-27T04:55:28.543Z,94747.00
2023-03-27T04:56:28.553Z,94747.00
2023-03-27T04:57:28.548Z,94748.00
2023-03-27T04:58:28.558Z,94748.00
2023-03-27T04:59:27.516Z,94750.00
2023-03-27T05:00:28.510Z,94752.00
2023-03-27T05:01:27.540Z,94758.00
2023-03-27T05:02:28.516Z,94758.00
2023-03-27T05:07:27.501Z,94762.00
2023-03-27T05:08:28.488Z,94764.00
2023-03-27T05:10:27.458Z,94764.00
2023-03-27T05:11:28.418Z,94768.00
2023-03-27T05:12:28.436Z,94768.00
2023-03-27T05:13:28.505Z,94768.00
2023-03-27T05:17:27.406Z,94776.00
2023-03-27T05:18:28.357Z,94780.00
2023-03-27T05:19:28.362Z,94782.00
2023-03-27T05:20:28.378Z,94784.00
2023-03-27T05:23:27.405Z,94786.00
2023-03-27T05:25:34.289Z,94770.00
2023-03-27T05:26:28.314Z,94786.00
2023-03-27T05:27:28.326Z,94788.00
2023-03-27T05:31:27.360Z,94803.00
2023-03-27T05:32:28.275Z,94807.00
2023-03-27T05:33:28.247Z,94809.00
2023-03-27T05:34:28.281Z,94807.00
2023-03-27T05:35:28.632Z,94809.00
2023-03-27T05:36:28.224Z,94809.00
2023-03-27T05:40:27.213Z,94825.00
2023-03-27T05:41:28.208Z,94825.00
2023-03-27T05:42:28.216Z,94834.00
2023-03-27T05:49:04.573Z,94852.00
2023-03-27T05:50:05.555Z,94848.00
2023-03-27T05:51:05.562Z,94844.00
2023-03-27T05:52:05.550Z,94846.00
2023-03-27T05:53:05.542Z,94852.00
2023-03-27T05:54:05.555Z,94850.00
2023-03-27T05:55:05.549Z,94852.00
2023-03-27T05:57:04.574Z,94864.00
2023-03-27T05:58:04.512Z,94866.00
2023-03-27T05:59:05.496Z,94868.00
2023-03-27T06:02:04.525Z,94874.00
2023-03-27T06:03:05.541Z,94876.00
2023-03-27T06:04:05.582Z,94878.00
2023-03-27T06:08:04.440Z,94895.00
2023-03-27T06:09:05.426Z,94899.00
2023-03-27T06:11:04.657Z,94903.00
2023-03-27T06:12:05.400Z,94907.00
2023-03-27T06:16:04.389Z,94915.00
2023-03-27T06:17:05.433Z,94928.00
2023-03-27T06:18:04.546Z,94928.00
2023-03-27T06:21:04.348Z,94936.00
2023-03-27T06:22:05.491Z,94938.00
2023-03-27T06:24:04.498Z,94946.00
2023-03-27T06:25:04.543Z,94958.00
2023-03-27T06:27:04.364Z,94960.00
2023-03-27T06:31:04.337Z,94977.00
2023-03-27T06:32:05.374Z,94983.00
2023-03-27T06:33:04.460Z,94985.00
2023-03-27T06:34:04.482Z,94991.00
2023-03-27T06:35:05.533Z,94995.00
2023-03-27T06:36:05.654Z,94999.00
2023-03-27T06:38:04.677Z,95001.00
2023-03-27T06:39:05.737Z,95003.00
2023-03-27T06:40:05.790Z,95005.00
2023-03-27T06:44:05.046Z,95022.00
2023-03-27T06:45:06.101Z,95024.00
2023-03-27T06:46:06.342Z,95024.00
2023-03-27T06:47:06.279Z,95026.00
2023-03-27T06:50:05.460Z,95038.00
2023-03-27T06:51:06.446Z,95044.00
2023-03-27T06:52:06.482Z,95050.00
2023-03-27T06:53:13.042Z,95050.00
2023-03-27T06:54:06.508Z,95052.00
2023-03-27T06:55:05.507Z,95058.00
2023-03-27T06:56:06.792Z,95065.00
2023-03-27T07:01:05.468Z,95077.00
2023-03-27T07:02:05.507Z,95077.00
2023-03-27T07:03:06.470Z,95083.00
2023-03-27T07:06:05.450Z,95111.00
2023-03-27T07:07:06.417Z,95114.00
2023-03-27T07:10:05.382Z,95113.00
2023-03-27T07:11:11.633Z,95118.00
2023-03-27T07:15:05.408Z,95128.00
2023-03-27T07:16:06.396Z,95130.00
2023-03-27T07:18:05.345Z,95148.00
2023-03-27T07:19:05.348Z,95157.00
2023-03-27T07:23:05.293Z,95161.00
2023-03-27T07:24:06.293Z,95163.00
2023-03-27T07:25:06.299Z,95165.00
2023-03-27T07:26:06.306Z,95167.00
2023-03-27T07:29:05.372Z,95191.00
2023-03-27T07:30:06.251Z,95191.00
2023-03-27T07:31:10.490Z,95193.00
2023-03-27T07:32:09.140Z,95197.00
2023-03-27T07:34:05.345Z,95205.00
2023-03-27T07:35:05.222Z,95208.00
2023-03-27T07:36:06.252Z,95212.00
2023-03-27T07:41:05.160Z,95228.00
2023-03-27T07:42:06.175Z,95232.00
2023-03-27T07:44:05.146Z,95236.00
2023-03-27T07:45:06.151Z,95238.00
2023-03-27T07:46:06.257Z,95245.00
2023-03-27T07:48:05.222Z,95249.00
2023-03-27T07:49:06.135Z,95251.00
2023-03-27T07:51:13.389Z,95261.00
2023-03-27T07:52:06.309Z,95263.00
2023-03-27T07:54:05.113Z,95279.00
2023-03-27T07:55:06.092Z,95281.00
2023-03-27T07:57:05.223Z,95289.00
2023-03-27T07:58:06.116Z,95291.00
2023-03-27T07:59:06.060Z,95298.00
2023-03-27T08:00:06.042Z,95300.00
2023-03-27T08:05:05.190Z,95312.00
2023-03-27T08:06:06.014Z,95318.00
2023-03-27T08:08:05.009Z,95322.00
2023-03-27T08:09:05.992Z,95330.00
2023-03-27T08:10:05.969Z,95334.00
2023-03-27T08:14:04.959Z,95351.00
2023-03-27T08:15:05.964Z,95353.00
2023-03-27T08:16:05.975Z,95351.00
2023-03-27T08:17:15.692Z,95355.00
2023-03-27T08:20:04.980Z,95363.00
2023-03-27T08:21:05.967Z,95367.00
2023-03-27T08:22:04.963Z,95369.00
2023-03-27T08:23:05.944Z,95373.00
2023-03-27T08:27:04.938Z,95381.00
2023-03-27T08:28:05.910Z,95385.00
2023-03-27T08:30:04.899Z,95390.00
2023-03-27T08:31:05.936Z,95392.00
2023-03-27T08:32:08.889Z,95394.00
2023-03-27T08:34:04.863Z,95390.00
2023-03-27T08:36:04.882Z,95394.00
2023-03-27T08:37:05.840Z,95394.00
2023-03-27T08:38:11.245Z,95402.00
2023-03-27T08:43:04.807Z,95414.00
2023-03-27T08:44:05.781Z,95416.00
2023-03-27T08:45:05.784Z,95418.00
2023-03-27T08:46:05.858Z,95418.00
2023-03-27T08:49:04.758Z,95445.00
2023-03-27T08:50:05.744Z,95441.00
2023-03-27T08:51:05.762Z,95439.00
2023-03-27T08:52:05.725Z,95441.00
2023-03-27T08:54:04.722Z,95439.00
2023-03-27T08:55:05.725Z,95439.00
2023-03-27T09:01:04.672Z,95461.00
2023-03-27T09:02:06.124Z,95463.00
2023-03-27T09:07:04.728Z,95480.00
2023-03-27T09:08:05.625Z,95478.00
2023-03-27T09:09:04.621Z,95480.00
2023-03-27T09:10:04.630Z,95484.00
2023-03-27T09:11:05.602Z,95484.00
2023-03-27T09:12:05.610Z,95484.00
2023-03-27T09:13:05.629Z,95486.00
2023-03-27T09:14:05.647Z,95488.00
2023-03-27T09:15:05.686Z,95490.00
2023-03-27T09:16:05.730Z,95488.00
2023-03-27T09:17:05.710Z,95494.00
2023-03-27T09:18:05.781Z,95490.00
2023-03-27T09:19:05.746Z,95494.00
2023-03-27T09:20:05.763Z,95498.00
2023-03-27T09:24:04.804Z,95508.00
2023-03-27T09:25:05.802Z,95512.00
2023-03-27T09:26:05.804Z,95514.00
2023-03-27T09:27:07.470Z,95516.00
2023-03-27T09:30:06.299Z,95516.00
2023-03-27T09:33:04.835Z,95520.00
2023-03-27T09:34:05.754Z,95527.00
2023-03-27T09:35:05.735Z,95531.00
2023-03-27T09:36:05.778Z,95529.00
2023-03-27T09:37:05.749Z,95531.00
2023-03-27T09:41:04.703Z,95535.00
2023-03-27T09:42:06.752Z,95535.00
2023-03-27T09:43:05.707Z,95539.00
2023-03-27T09:45:04.684Z,95541.00
2023-03-27T09:46:05.670Z,95543.00
2023-03-27T09:47:05.728Z,95543.00
2023-03-27T09:49:04.670Z,95547.00
2023-03-27T09:51:04.625Z,95547.00
2023-03-27T09:52:04.636Z,95549.00
2023-03-27T09:53:05.845Z,95551.00
2023-03-27T09:56:04.605Z,95561.00
2023-03-27T09:59:04.573Z,95559.00
2023-03-27T10:00:05.557Z,95561.00
2023-03-27T10:03:04.610Z,95563.00
2023-03-27T10:04:05.583Z,95563.00
2023-03-27T10:06:04.524Z,95565.00
2023-03-27T10:07:05.619Z,95567.00
2023-03-27T10:09:04.511Z,95578.00
2023-03-27T10:11:04.516Z,95580.00
2023-03-27T10:12:05.484Z,95580.00
2023-03-27T10:13:05.483Z,95580.00
2023-03-27T10:14:05.494Z,95584.00
2023-03-27T10:16:04.494Z,95596.00
2023-03-27T10:17:04.489Z,95598.00
2023-03-27T10:18:05.485Z,95602.00
2023-03-27T10:21:04.435Z,95602.00
2023-03-27T10:22:05.430Z,95602.00
2023-03-27T10:24:04.406Z,95606.00
2023-03-27T10:25:04.422Z,95611.00
2023-03-27T10:26:05.414Z,95613.00
2023-03-27T10:27:05.431Z,95619.00
2023-03-27T10:29:04.363Z,95631.00
2023-03-27T10:30:05.364Z,95629.00
2023-03-27T10:32:04.427Z,95627.00
2023-03-27T10:33:05.466Z,95629.00
2023-03-27T10:35:04.375Z,95631.00
2023-03-27T10:36:05.352Z,95625.00
2023-03-27T10:37:05.346Z,95629.00
2023-03-27T10:41:04.276Z,95627.00
2023-03-27T10:42:05.285Z,95627.00
2023-03-27T10:43:05.393Z,95627.00
2023-03-27T10:46:04.301Z,95637.00
2023-03-27T10:47:05.280Z,95635.00
2023-03-27T10:49:04.249Z,95635.00
2023-03-27T10:51:04.242Z,95631.00
2023-03-27T10:52:05.209Z,95633.00
2023-03-27T10:53:05.234Z,95639.00
2023-03-27T10:57:04.265Z,95647.00
2023-03-27T10:58:05.182Z,95645.00
2023-03-27T10:59:05.176Z,95643.00
2023-03-27T11:03:04.209Z,95643.00
2023-03-27T11:04:05.305Z,95645.00
2023-03-27T11:05:05.296Z,95645.00
2023-03-27T11:06:05.331Z,95647.00
2023-03-27T11:07:05.395Z,95649.00
2023-03-27T11:08:05.412Z,95653.00
2023-03-27T11:09:05.404Z,95653.00
2023-03-27T11:10:05.432Z,95655.00
2023-03-27T11:14:04.540Z,95658.00
2023-03-27T11:15:04.553Z,95660.00
2023-03-27T11:16:04.556Z,95662.00
2023-03-27T11:17:04.679Z,95658.00
2023-03-27T11:18:05.630Z,95664.00
2023-03-27T11:19:05.600Z,95668.00
2023-03-27T11:20:05.620Z,95668.00
2023-03-27T11:22:04.610Z,95672.00
2023-03-27T11:23:04.630Z,95672.00
2023-03-27T11:24:05.640Z,95674.00
2023-03-27T11:25:05.629Z,95676.00
2023-03-27T11:28:04.663Z,95678.00
2023-03-27T11:29:05.679Z,95676.00
2023-03-27T11:30:05.688Z,95674.00
2023-03-27T11:31:11.670Z,95684.00
2023-03-27T11:34:04.661Z,95688.00
2023-03-27T11:35:05.655Z,95696.00
2023-03-27T11:36:05.709Z,95696.00
2023-03-27T11:37:05.649Z,95698.00
2023-03-27T11:38:05.889Z,95698.00
2023-03-27T11:39:05.629Z,95702.00
2023-03-27T11:42:04.617Z,95700.00
2023-03-27T11:43:05.631Z,95702.00
2023-03-27T11:44:05.594Z,95703.00
2023-03-27T11:45:05.604Z,95702.00
2023-03-27T11:46:05.624Z,95705.00
2023-03-27T11:48:04.594Z,95710.00
2023-03-27T11:49:05.581Z,95710.00
2023-03-27T11:51:04.547Z,95717.00
2023-03-27T11:52:04.562Z,95721.00
2023-03-27T11:53:04.556Z,95719.00
2023-03-27T11:54:04.562Z,95723.00
2023-03-27T11:57:04.559Z,95723.00
2023-03-27T11:58:04.518Z,95721.00
2023-03-27T11:59:05.519Z,95721.00
2023-03-27T12:01:04.498Z,95723.00
2023-03-27T12:02:05.519Z,95721.00
2023-03-27T12:04:04.577Z,95727.00
2023-03-27T12:05:05.456Z,95725.00
2023-03-27T12:07:05.296Z,95729.00
2023-03-27T12:08:04.461Z,95727.00
2023-03-27T12:10:04.425Z,95731.00
2023-03-27T12:11:05.455Z,95731.00
2023-03-27T12:12:05.460Z,95733.00
2023-03-27T12:13:05.485Z,95731.00
2023-03-27T12:15:04.503Z,95725.00
2023-03-27T12:16:05.543Z,95725.00
2023-03-27T12:17:05.530Z,95725.00
2023-03-27T12:18:05.629Z,95729.00
2023-03-27T12:19:10.991Z,95731.00
2023-03-27T12:20:05.551Z,95733.00
2023-03-27T12:21:05.541Z,95737.00
2023-03-27T12:22:20.764Z,95739.00
2023-03-27T12:23:05.548Z,95739.00
2023-03-27T12:24:05.523Z,95735.00
2023-03-27T12:27:04.515Z,95737.00
2023-03-27T12:28:05.497Z,95737.00
2023-03-27T12:29:23.708Z,95735.00
2023-03-27T12:30:05.468Z,95737.00
2023-03-27T12:31:05.504Z,95743.00
2023-03-27T12:33:04.486Z,95745.00
2023-03-27T12:34:05.459Z,95747.00
2023-03-27T12:35:05.472Z,95750.00
2023-03-27T12:36:04.453Z,95750.00
2023-03-27T12:37:05.412Z,95750.00
2023-03-27T12:38:05.461Z,95752.00
2023-03-27T12:40:04.406Z,95752.00
2023-03-27T12:41:05.410Z,95757.00
2023-03-27T12:42:05.449Z,95757.00
2023-03-27T12:46:04.520Z,95755.00
2023-03-27T12:47:06.606Z,95758.00
2023-03-27T14:18:34.747Z,95866.00
2023-03-27T14:19:35.763Z,95868.00
2023-03-27T14:21:38.813Z,95874.00
2023-03-27T14:22:35.697Z,95876.00
2023-03-27T14:23:34.692Z,95876.00
2023-03-27T14:24:35.674Z,95876.00
2023-03-27T14:25:35.684Z,95878.00
2023-03-27T14:26:35.689Z,95878.00
2023-03-27T14:28:34.720Z,95880.00
2023-03-27T14:29:35.653Z,95886.00
2023-03-27T14:31:34.663Z,95890.00
2023-03-27T14:32:35.686Z,95891.00
2023-03-27T14:33:35.648Z,95895.00
2023-03-27T14:34:47.133Z,95895.00
2023-03-27T14:35:35.657Z,95895.00
2023-03-27T14:38:34.587Z,95895.00
2023-03-27T14:39:34.574Z,95893.00
2023-03-27T14:40:35.599Z,95899.00
2023-03-27T14:41:35.579Z,95901.00
2023-03-27T14:43:34.558Z,95913.00
2023-03-27T14:44:35.550Z,95913.00
2023-03-27T14:45:35.638Z,95917.00
2023-03-27T14:46:35.579Z,95923.00
2023-03-27T14:47:35.541Z,95923.00
2023-03-27T14:48:35.514Z,95929.00
2023-03-27T14:49:35.517Z,95929.00
2023-03-27T14:51:34.500Z,95938.00
2023-03-27T14:52:35.478Z,95938.00
2023-03-27T14:53:35.477Z,95942.00
2023-03-27T14:54:48.426Z,95962.00
2023-03-27T14:55:35.462Z,95962.00
2023-03-27T14:57:34.452Z,95970.00
2023-03-27T14:58:35.430Z,95970.00
2023-03-27T14:59:35.430Z,95976.00
2023-03-27T15:01:34.428Z,95985.00
2023-03-27T15:03:34.430Z,95982.00
2023-03-27T15:04:35.384Z,95985.00
2023-03-27T15:05:35.418Z,95991.00
2023-03-27T15:06:34.382Z,96001.00
2023-03-27T15:07:35.364Z,96009.00
2023-03-27T15:08:35.354Z,96003.00
2023-03-27T15:11:34.334Z,96017.00
2023-03-27T15:12:35.337Z,96019.00
2023-03-27T15:13:35.332Z,96029.00
2023-03-27T15:14:35.336Z,96029.00
2023-03-27T15:15:35.326Z,96032.00
2023-03-27T15:18:34.290Z,96030.00
2023-03-27T15:19:35.299Z,96029.00
2023-03-27T15:22:34.388Z,96030.00
2023-03-27T15:23:35.419Z,96036.00
2023-03-27T15:24:34.446Z,96040.00
2023-03-27T15:25:35.494Z,96040.00
2023-03-27T15:26:35.482Z,96036.00
2023-03-27T15:28:34.522Z,96034.00
2023-03-27T15:29:35.531Z,96032.00
2023-03-27T15:31:53.639Z,96029.00
2023-03-27T15:32:54.635Z,96029.00
2023-03-27T15:33:54.564Z,96027.00
2023-03-27T15:34:54.530Z,96021.00
2023-03-27T15:35:54.750Z,96023.00
2023-03-27T15:36:54.550Z,96030.00
2023-03-27T15:37:53.526Z,96034.00
2023-03-27T15:38:53.528Z,96032.00
2023-03-27T15:39:54.496Z,96036.00
2023-03-27T15:40:54.538Z,96032.00
2023-03-27T15:41:54.496Z,96030.00
2023-03-27T15:42:54.491Z,96030.00
2023-03-27T15:43:54.485Z,96029.00
2023-03-27T15:44:54.467Z,96029.00
2023-03-27T15:45:54.525Z,96029.00
2023-03-27T15:46:54.552Z,96027.00
2023-03-27T15:47:54.474Z,96025.00
2023-03-27T15:48:54.432Z,96029.00
2023-03-27T15:49:53.431Z,96029.00
2023-03-27T15:50:54.431Z,96032.00
2023-03-27T15:51:54.424Z,96032.00
2023-03-27T15:52:54.426Z,96032.00
2023-03-27T15:53:53.412Z,96036.00
2023-03-27T15:54:54.384Z,96036.00
2023-03-27T15:55:54.457Z,96042.00
2023-03-27T15:56:53.448Z,96042.00
2023-03-27T15:57:54.381Z,96040.00
2023-03-27T15:58:54.380Z,96042.00
2023-03-27T15:59:54.355Z,96046.00
2023-03-27T16:00:54.396Z,96048.00
2023-03-27T16:01:54.360Z,96050.00
2023-03-27T16:02:53.393Z,96054.00
2023-03-27T16:03:54.780Z,96056.00
2023-03-27T16:04:53.437Z,96056.00
2023-03-27T16:05:54.352Z,96060.00
2023-03-27T16:06:54.323Z,96058.00
2023-03-27T16:07:54.322Z,96064.00
2023-03-27T16:08:53.601Z,96062.00
2023-03-27T16:09:54.279Z,96068.00
2023-03-27T16:10:54.296Z,96066.00
2023-03-27T16:11:54.316Z,96069.00
2023-03-27T16:12:54.265Z,96068.00
2023-03-27T16:13:54.274Z,96071.00
2023-03-27T16:14:54.261Z,96069.00
2023-03-27T16:15:54.389Z,96071.00
2023-03-27T16:16:54.233Z,96071.00
2023-03-27T16:17:54.316Z,96068.00
2023-03-27T16:18:54.216Z,96069.00
2023-03-27T16:19:54.246Z,96069.00
2023-03-27T16:20:54.227Z,96069.00
2023-03-27T16:21:54.208Z,96069.00
2023-03-27T16:22:54.189Z,96073.00
2023-03-27T16:23:54.179Z,96075.00
2023-03-27T16:24:54.220Z,96075.00
2023-03-27T16:25:54.185Z,96079.00